sensor_id;sensor_type;location;lat;lon;timestamp;pressure;altitude;pressure_sealevel;temperature;humidity
17936;BME280;9093;52.062;4.508;2023-02-28T00:02:34;103532.38;;;3.42;64.26
17936;BME280;9093;52.062;4.508;2023-02-28T00:05:17;103536.88;;;3.48;64.19
17936;BME280;9093;52.062;4.508;2023-02-28T00:07:58;103538.75;;;3.52;64.35
17936;BME280;9093;52.062;4.508;2023-02-28T00:10:38;103543.22;;;3.56;64.11
17936;BME280;9093;52.062;4.508;2023-02-28T00:13:18;103552.09;;;3.61;64.66
17936;BME280;9093;52.062;4.508;2023-02-28T00:16:05;103554.81;;;3.64;64.17
17936;BME280;9093;52.062;4.508;2023-02-28T00:18:46;103558.41;;;3.69;64.38
17936;BME280;9093;52.062;4.508;2023-02-28T00:21:27;103554.09;;;3.73;64.51
17936;BME280;9093;52.062;4.508;2023-02-28T00:24:08;103551.53;;;3.77;64.41
17936;BME280;9093;52.062;4.508;2023-02-28T00:26:48;103546.28;;;3.80;64.60
17936;BME280;9093;52.062;4.508;2023-02-28T00:29:28;103546.34;;;3.83;64.41
17936;BME280;9093;52.062;4.508;2023-02-28T00:32:08;103546.38;;;3.86;64.68
17936;BME280;9093;52.062;4.508;2023-02-28T00:34:49;103544.66;;;3.88;64.61
17936;BME280;9093;52.062;4.508;2023-02-28T00:37:29;103551.78;;;3.92;64.71
17936;BME280;9093;52.062;4.508;2023-02-28T00:40:10;103542.97;;;3.93;64.78
17936;BME280;9093;52.062;4.508;2023-02-28T00:42:52;103551.00;;;3.98;64.95
17936;BME280;9093;52.062;4.508;2023-02-28T00:45:32;103541.28;;;3.98;64.95
17936;BME280;9093;52.062;4.508;2023-02-28T00:48:12;103540.47;;;4.01;64.69
17936;BME280;9093;52.062;4.508;2023-02-28T00:50:53;103537.84;;;4.02;64.88
17936;BME280;9093;52.062;4.508;2023-02-28T00:53:33;103536.13;;;4.04;65.06
17936;BME280;9093;52.062;4.508;2023-02-28T00:56:13;103530.84;;;4.06;64.93
17936;BME280;9093;52.062;4.508;2023-02-28T00:58:54;103536.16;;;4.08;64.93
17936;BME280;9093;52.062;4.508;2023-02-28T01:01:34;103536.25;;;4.11;65.36
17936;BME280;9093;52.062;4.508;2023-02-28T01:04:15;103541.53;;;4.11;65.01
17936;BME280;9093;52.062;4.508;2023-02-28T01:06:55;103538.88;;;4.11;65.24
17936;BME280;9093;52.062;4.508;2023-02-28T01:09:36;103548.63;;;4.15;65.47
17936;BME280;9093;52.062;4.508;2023-02-28T01:12:16;103544.22;;;4.15;65.23
17936;BME280;9093;52.062;4.508;2023-02-28T01:14:57;103545.13;;;4.16;65.56
17936;BME280;9093;52.062;4.508;2023-02-28T01:17:37;103543.38;;;4.18;65.25
17936;BME280;9093;52.062;4.508;2023-02-28T01:20:18;103545.16;;;4.19;65.34
17936;BME280;9093;52.062;4.508;2023-02-28T01:22:58;103542.53;;;4.20;65.51
17936;BME280;9093;52.062;4.508;2023-02-28T01:25:38;103550.50;;;4.22;65.58
17936;BME280;9093;52.062;4.508;2023-02-28T01:28:19;103554.00;;;4.21;65.41
17936;BME280;9093;52.062;4.508;2023-02-28T01:31:00;103547.00;;;4.23;65.68
17936;BME280;9093;52.062;4.508;2023-02-28T01:33:41;103548.75;;;4.24;65.58
17936;BME280;9093;52.062;4.508;2023-02-28T01:36:23;103548.78;;;4.25;65.87
17936;BME280;9093;52.062;4.508;2023-02-28T01:39:04;103548.72;;;4.21;65.60
17936;BME280;9093;52.062;4.508;2023-02-28T01:41:44;103546.09;;;4.22;65.69
17936;BME280;9093;52.062;4.508;2023-02-28T01:47:43;103533.78;;;4.24;66.13
17936;BME280;9093;52.062;4.508;2023-02-28T01:50:27;103538.19;;;4.25;65.96
17936;BME280;9093;52.062;4.508;2023-02-28T01:53:12;103525.88;;;4.26;66.04
17936;BME280;9093;52.062;4.508;2023-02-28T01:55:53;103522.38;;;4.27;66.09
17936;BME280;9093;52.062;4.508;2023-02-28T01:58:34;103520.66;;;4.29;66.13
17936;BME280;9093;52.062;4.508;2023-02-28T02:01:16;103519.78;;;4.31;65.98
17936;BME280;9093;52.062;4.508;2023-02-28T02:04:02;103512.75;;;4.33;66.26
17936;BME280;9093;52.062;4.508;2023-02-28T02:06:45;103515.44;;;4.35;66.45
17936;BME280;9093;52.062;4.508;2023-02-28T02:09:27;103518.97;;;4.37;66.11
17936;BME280;9093;52.062;4.508;2023-02-28T02:12:29;103507.53;;;4.38;66.40
17936;BME280;9093;52.062;4.508;2023-02-28T02:15:34;103510.19;;;4.38;66.52
17936;BME280;9093;52.062;4.508;2023-02-28T02:18:30;103508.44;;;4.40;66.16
17936;BME280;9093;52.062;4.508;2023-02-28T02:33:36;103497.09;;;4.47;66.71
17936;BME280;9093;52.062;4.508;2023-02-28T02:36:32;103496.22;;;4.48;66.65
17936;BME280;9093;52.062;4.508;2023-02-28T02:43:02;103492.75;;;4.52;66.72
17936;BME280;9093;52.062;4.508;2023-02-28T02:45:35;103485.66;;;4.51;66.68
17936;BME280;9093;52.062;4.508;2023-02-28T02:48:19;103492.81;;;4.55;66.92
17936;BME280;9093;52.062;4.508;2023-02-28T02:51:04;103486.63;;;4.56;67.10
17936;BME280;9093;52.062;4.508;2023-02-28T02:54:00;103489.25;;;4.56;67.06
17936;BME280;9093;52.062;4.508;2023-02-28T02:56:45;103491.09;;;4.60;66.86
17936;BME280;9093;52.062;4.508;2023-02-28T02:59:28;103487.59;;;4.61;67.00
17936;BME280;9093;52.062;4.508;2023-02-28T03:02:12;103483.19;;;4.63;66.82
17936;BME280;9093;52.062;4.508;2023-02-28T03:04:58;103484.97;;;4.64;66.85
17936;BME280;9093;52.062;4.508;2023-02-28T03:07:42;103485.84;;;4.65;67.03
17936;BME280;9093;52.062;4.508;2023-02-28T03:10:47;103483.22;;;4.65;66.83
17936;BME280;9093;52.062;4.508;2023-02-28T03:16:29;103495.59;;;4.67;66.94
17936;BME280;9093;52.062;4.508;2023-02-28T03:19:45;103507.09;;;4.68;67.01
17936;BME280;9093;52.062;4.508;2023-02-28T03:22:33;103499.16;;;4.68;67.09
17936;BME280;9093;52.062;4.508;2023-02-28T03:25:29;103501.75;;;4.66;67.11
17936;BME280;9093;52.062;4.508;2023-02-28T03:34:21;103492.97;;;4.70;67.35
17936;BME280;9093;52.062;4.508;2023-02-28T03:37:09;103489.47;;;4.71;67.36
17936;BME280;9093;52.062;4.508;2023-02-28T03:40:05;103490.38;;;4.72;67.50
17936;BME280;9093;52.062;4.508;2023-02-28T03:42:54;103492.19;;;4.77;67.48
17936;BME280;9093;52.062;4.508;2023-02-28T03:45:38;103497.50;;;4.79;67.42
17936;BME280;9093;52.062;4.508;2023-02-28T03:51:03;103492.25;;;4.82;67.63
17936;BME280;9093;52.062;4.508;2023-02-28T03:53:51;103486.06;;;4.81;67.53
17936;BME280;9093;52.062;4.508;2023-02-28T03:57:27;103489.63;;;4.83;67.72
17936;BME280;9093;52.062;4.508;2023-02-28T03:59:56;103480.81;;;4.84;67.62
17936;BME280;9093;52.062;4.508;2023-02-28T04:02:39;103484.38;;;4.87;67.85
17936;BME280;9093;52.062;4.508;2023-02-28T04:05:21;103486.13;;;4.88;67.56
17936;BME280;9093;52.062;4.508;2023-02-28T04:08:06;103481.72;;;4.88;67.80
17936;BME280;9093;52.062;4.508;2023-02-28T04:10:59;103481.72;;;4.88;67.81
17936;BME280;9093;52.062;4.508;2023-02-28T04:13:40;103487.03;;;4.90;68.11
17936;BME280;9093;52.062;4.508;2023-02-28T04:16:21;103487.06;;;4.91;67.72
17936;BME280;9093;52.062;4.508;2023-02-28T04:19:03;103489.75;;;4.93;68.10
17936;BME280;9093;52.062;4.508;2023-02-28T04:21:47;103495.03;;;4.94;67.80
17936;BME280;9093;52.062;4.508;2023-02-28T04:24:29;103503.88;;;4.95;67.86
17936;BME280;9093;52.062;4.508;2023-02-28T04:27:09;103500.34;;;4.96;67.85
17936;BME280;9093;52.062;4.508;2023-02-28T04:29:49;103503.00;;;4.96;67.89
17936;BME280;9093;52.062;4.508;2023-02-28T04:32:30;103495.94;;;4.96;68.17
17936;BME280;9093;52.062;4.508;2023-02-28T04:35:10;103511.84;;;4.96;67.96
17936;BME280;9093;52.062;4.508;2023-02-28T04:37:50;103509.22;;;4.98;67.92
17936;BME280;9093;52.062;4.508;2023-02-28T04:40:31;103503.03;;;4.97;68.38
17936;BME280;9093;52.062;4.508;2023-02-28T04:43:11;103505.69;;;4.99;68.42
17936;BME280;9093;52.062;4.508;2023-02-28T04:45:51;103507.44;;;5.00;68.12
17936;BME280;9093;52.062;4.508;2023-02-28T04:48:34;103507.44;;;5.00;67.98
17936;BME280;9093;52.062;4.508;2023-02-28T04:51:15;103510.03;;;4.94;68.25
17936;BME280;9093;52.062;4.508;2023-02-28T04:53:56;103514.47;;;4.96;68.27
17936;BME280;9093;52.062;4.508;2023-02-28T04:56:37;103513.59;;;4.96;68.42
17936;BME280;9093;52.062;4.508;2023-02-28T04:59:17;103518.03;;;4.97;68.31
17936;BME280;9093;52.062;4.508;2023-02-28T05:01:57;103514.47;;;4.95;68.32
17936;BME280;9093;52.062;4.508;2023-02-28T05:04:37;103518.03;;;4.97;68.38
17936;BME280;9093;52.062;4.508;2023-02-28T05:07:18;103510.94;;;4.96;68.38
17936;BME280;9093;52.062;4.508;2023-02-28T05:09:58;103512.72;;;4.97;68.55
17936;BME280;9093;52.062;4.508;2023-02-28T05:12:38;103516.25;;;4.96;68.53
17936;BME280;9093;52.062;4.508;2023-02-28T05:15:19;103510.94;;;4.96;68.49
17936;BME280;9093;52.062;4.508;2023-02-28T05:17:59;103504.75;;;4.95;68.73
17936;BME280;9093;52.062;4.508;2023-02-28T05:20:39;103498.56;;;4.95;68.86
17936;BME280;9093;52.062;4.508;2023-02-28T05:23:21;103503.88;;;4.95;68.68
17936;BME280;9093;52.062;4.508;2023-02-28T05:26:02;103502.09;;;4.94;68.56
17936;BME280;9093;52.062;4.508;2023-02-28T05:28:43;103498.56;;;4.92;68.56
17936;BME280;9093;52.062;4.508;2023-02-28T05:31:23;103503.84;;;4.92;68.75
17936;BME280;9093;52.062;4.508;2023-02-28T05:34:04;103502.94;;;4.91;68.75
17936;BME280;9093;52.062;4.508;2023-02-28T05:36:44;103508.19;;;4.88;68.88
17936;BME280;9093;52.062;4.508;2023-02-28T05:39:24;103509.94;;;4.88;68.95
17936;BME280;9093;52.062;4.508;2023-02-28T05:42:05;103512.59;;;4.88;68.73
17936;BME280;9093;52.062;4.508;2023-02-28T05:44:46;103509.97;;;4.86;68.84
17936;BME280;9093;52.062;4.508;2023-02-28T05:47:26;103511.72;;;4.87;68.92
17936;BME280;9093;52.062;4.508;2023-02-28T05:50:07;103513.47;;;4.85;69.10
17936;BME280;9093;52.062;4.508;2023-02-28T05:52:52;103501.03;;;4.81;68.93
17936;BME280;9093;52.062;4.508;2023-02-28T05:55:33;103507.22;;;4.81;68.86
17936;BME280;9093;52.062;4.508;2023-02-28T05:58:13;103509.88;;;4.80;69.06
17936;BME280;9093;52.062;4.508;2023-02-28T06:00:53;103502.78;;;4.77;69.06
17936;BME280;9093;52.062;4.508;2023-02-28T06:03:33;103506.28;;;4.76;69.00
17936;BME280;9093;52.062;4.508;2023-02-28T06:06:14;103516.91;;;4.78;69.26
17936;BME280;9093;52.062;4.508;2023-02-28T06:08:54;103498.31;;;4.75;69.45
17936;BME280;9093;52.062;4.508;2023-02-28T06:11:34;103500.97;;;4.73;69.07
17936;BME280;9093;52.062;4.508;2023-02-28T06:14:17;103506.28;;;4.76;69.21
17936;BME280;9093;52.062;4.508;2023-02-28T06:16:58;103505.38;;;4.74;69.09
17936;BME280;9093;52.062;4.508;2023-02-28T06:19:39;103508.91;;;4.73;68.95
17936;BME280;9093;52.062;4.508;2023-02-28T06:22:21;103507.16;;;4.74;68.92
17936;BME280;9093;52.062;4.508;2023-02-28T06:25:03;103512.44;;;4.75;68.94
17936;BME280;9093;52.062;4.508;2023-02-28T06:27:43;103502.72;;;4.74;69.00
17936;BME280;9093;52.062;4.508;2023-02-28T06:30:24;103508.03;;;4.74;69.09
17936;BME280;9093;52.062;4.508;2023-02-28T06:33:06;103512.44;;;4.75;68.89
17936;BME280;9093;52.062;4.508;2023-02-28T06:35:50;103514.22;;;4.75;68.94
17936;BME280;9093;52.062;4.508;2023-02-28T06:38:31;103522.97;;;4.69;69.26
17936;BME280;9093;52.062;4.508;2023-02-28T06:41:11;103517.66;;;4.66;69.02
17936;BME280;9093;52.062;4.508;2023-02-28T06:43:53;103512.28;;;4.63;69.16
17936;BME280;9093;52.062;4.508;2023-02-28T06:46:33;103521.94;;;4.58;69.22
17936;BME280;9093;52.062;4.508;2023-02-28T06:49:14;103526.31;;;4.56;69.29
17936;BME280;9093;52.062;4.508;2023-02-28T06:51:55;103527.19;;;4.55;69.49
17936;BME280;9093;52.062;4.508;2023-02-28T06:54:36;103528.91;;;4.52;69.28
17936;BME280;9093;52.062;4.508;2023-02-28T06:57:17;103531.50;;;4.47;69.30
17936;BME280;9093;52.062;4.508;2023-02-28T07:00:05;103541.13;;;4.43;69.35
17936;BME280;9093;52.062;4.508;2023-02-28T07:02:47;103540.19;;;4.40;69.39
17936;BME280;9093;52.062;4.508;2023-02-28T07:05:27;103548.97;;;4.37;69.40
17936;BME280;9093;52.062;4.508;2023-02-28T07:08:08;103556.00;;;4.37;69.44
17936;BME280;9093;52.062;4.508;2023-02-28T07:10:52;103555.06;;;4.32;69.51
17936;BME280;9093;52.062;4.508;2023-02-28T07:13:32;103564.75;;;4.30;69.15
17936;BME280;9093;52.062;4.508;2023-02-28T07:16:12;103566.41;;;4.25;69.16
17936;BME280;9093;52.062;4.508;2023-02-28T07:18:54;103566.38;;;4.22;69.48
17936;BME280;9093;52.062;4.508;2023-02-28T07:21:34;103565.44;;;4.20;69.28
17936;BME280;9093;52.062;4.508;2023-02-28T07:24:15;103562.75;;;4.15;69.46
17936;BME280;9093;52.062;4.508;2023-02-28T07:26:57;103559.91;;;4.03;69.38
17936;BME280;9093;52.062;4.508;2023-02-28T07:29:39;103564.28;;;4.02;69.22
17936;BME280;9093;52.062;4.508;2023-02-28T07:32:19;103564.19;;;3.96;69.45
17936;BME280;9093;52.062;4.508;2023-02-28T07:34:59;103565.91;;;3.94;69.22
17936;BME280;9093;52.062;4.508;2023-02-28T07:37:40;103569.41;;;3.93;69.43
17936;BME280;9093;52.062;4.508;2023-02-28T07:40:21;103569.41;;;3.93;69.59
17936;BME280;9093;52.062;4.508;2023-02-28T07:43:03;103570.28;;;3.91;69.03
17936;BME280;9093;52.062;4.508;2023-02-28T07:45:43;103577.25;;;3.87;68.87
17936;BME280;9093;52.062;4.508;2023-02-28T07:48:23;103571.88;;;3.83;69.08
17936;BME280;9093;52.062;4.508;2023-02-28T07:51:04;103578.00;;;3.80;69.01
17936;BME280;9093;52.062;4.508;2023-02-28T07:53:44;103578.84;;;3.78;68.81
17936;BME280;9093;52.062;4.508;2023-02-28T07:56:24;103577.88;;;3.73;68.74
17936;BME280;9093;52.062;4.508;2023-02-28T07:59:05;103579.56;;;3.69;68.65
17936;BME280;9093;52.062;4.508;2023-02-28T08:01:45;103579.53;;;3.66;68.76
17936;BME280;9093;52.062;4.508;2023-02-28T08:04:26;103582.09;;;3.63;68.70
17936;BME280;9093;52.062;4.508;2023-02-28T08:07:07;103576.69;;;3.57;68.55
17936;BME280;9093;52.062;4.508;2023-02-28T08:09:48;103585.44;;;3.54;68.72
17936;BME280;9093;52.062;4.508;2023-02-28T08:12:28;103584.59;;;3.54;68.62
17936;BME280;9093;52.062;4.508;2023-02-28T08:15:09;103585.38;;;3.50;68.39
17936;BME280;9093;52.062;4.508;2023-02-28T08:17:49;103588.00;;;3.50;68.35
17936;BME280;9093;52.062;4.508;2023-02-28T08:20:29;103578.28;;;3.47;68.12
17936;BME280;9093;52.062;4.508;2023-02-28T08:23:10;103591.50;;;3.47;68.42
17936;BME280;9093;52.062;4.508;2023-02-28T08:25:56;103595.91;;;3.48;68.10
17936;BME280;9093;52.062;4.508;2023-02-28T08:28:36;103584.44;;;3.48;68.41
17936;BME280;9093;52.062;4.508;2023-02-28T08:31:16;103580.13;;;3.51;68.46
17936;BME280;9093;52.062;4.508;2023-02-28T08:33:57;103591.63;;;3.53;68.22
17936;BME280;9093;52.062;4.508;2023-02-28T08:36:40;103587.22;;;3.55;68.26
17936;BME280;9093;52.062;4.508;2023-02-28T08:39:20;103577.59;;;3.57;68.40
17936;BME280;9093;52.062;4.508;2023-02-28T08:42:02;103584.72;;;3.63;68.53
17936;BME280;9093;52.062;4.508;2023-02-28T08:44:42;103568.94;;;3.66;68.59
17936;BME280;9093;52.062;4.508;2023-02-28T08:47:22;103571.69;;;3.72;68.60
17936;BME280;9093;52.062;4.508;2023-02-28T08:50:04;103578.00;;;3.79;68.66
17936;BME280;9093;52.062;4.508;2023-02-28T08:52:44;103563.91;;;3.81;68.52
17936;BME280;9093;52.062;4.508;2023-02-28T08:55:25;103572.81;;;3.85;68.43
17936;BME280;9093;52.062;4.508;2023-02-28T08:58:05;103557.84;;;3.87;68.55
17936;BME280;9093;52.062;4.508;2023-02-28T09:00:45;103558.69;;;3.86;68.69
17936;BME280;9093;52.062;4.508;2023-02-28T09:03:26;103560.53;;;3.88;68.92
17936;BME280;9093;52.062;4.508;2023-02-28T09:06:08;103552.63;;;3.90;68.78
17936;BME280;9093;52.062;4.508;2023-02-28T09:08:49;103548.34;;;3.96;68.88
17936;BME280;9093;52.062;4.508;2023-02-28T09:11:30;103553.66;;;3.99;69.31
17936;BME280;9093;52.062;4.508;2023-02-28T09:14:10;103545.81;;;4.04;69.25
17936;BME280;9093;52.062;4.508;2023-02-28T09:16:50;103552.03;;;4.08;69.18
17936;BME280;9093;52.062;4.508;2023-02-28T09:19:31;103564.44;;;4.12;69.16
17936;BME280;9093;52.062;4.508;2023-02-28T09:22:11;103562.78;;;4.17;69.27
17936;BME280;9093;52.062;4.508;2023-02-28T09:24:51;103563.75;;;4.23;69.53
17936;BME280;9093;52.062;4.508;2023-02-28T09:27:32;103569.16;;;4.31;69.44
17936;BME280;9093;52.062;4.508;2023-02-28T09:30:12;103563.09;;;4.38;69.79
17936;BME280;9093;52.062;4.508;2023-02-28T09:32:53;103563.16;;;4.41;69.67
17936;BME280;9093;52.062;4.508;2023-02-28T09:35:33;103564.06;;;4.44;69.67
17936;BME280;9093;52.062;4.508;2023-02-28T09:38:14;103566.84;;;4.52;69.89
17936;BME280;9093;52.062;4.508;2023-02-28T09:41:03;103559.84;;;4.57;69.72
17936;BME280;9093;52.062;4.508;2023-02-28T09:43:50;103556.41;;;4.64;69.80
17936;BME280;9093;52.062;4.508;2023-02-28T09:46:38;103553.84;;;4.70;70.23
17936;BME280;9093;52.062;4.508;2023-02-28T09:49:23;103562.84;;;4.83;69.93
17936;BME280;9093;52.062;4.508;2023-02-28T09:52:10;103562.09;;;4.92;70.24
17936;BME280;9093;52.062;4.508;2023-02-28T09:54:51;103565.69;;;5.00;70.10
17936;BME280;9093;52.062;4.508;2023-02-28T09:57:36;103568.44;;;5.04;70.14
17936;BME280;9093;52.062;4.508;2023-02-28T10:00:21;103573.81;;;5.10;70.14
17936;BME280;9093;52.062;4.508;2023-02-28T10:03:25;103566.75;;;5.11;70.53
17936;BME280;9093;52.062;4.508;2023-02-28T10:06:26;103569.53;;;5.23;70.63
17936;BME280;9093;52.062;4.508;2023-02-28T10:09:17;103559.94;;;5.33;70.54
17936;BME280;9093;52.062;4.508;2023-02-28T10:12:04;103569.75;;;5.41;70.59
17936;BME280;9093;52.062;4.508;2023-02-28T10:14:47;103573.38;;;5.49;70.67
17936;BME280;9093;52.062;4.508;2023-02-28T10:17:41;103566.34;;;5.53;70.54
17936;BME280;9093;52.062;4.508;2023-02-28T10:20:24;103566.44;;;5.62;70.83
17936;BME280;9093;52.062;4.508;2023-02-28T10:23:17;103558.50;;;5.65;70.87
17936;BME280;9093;52.062;4.508;2023-02-28T10:26:12;103558.56;;;5.68;70.73
17936;BME280;9093;52.062;4.508;2023-02-28T10:28:53;103564.84;;;5.79;71.04
17936;BME280;9093;52.062;4.508;2023-02-28T10:31:33;103566.66;;;5.85;70.97
17936;BME280;9093;52.062;4.508;2023-02-28T10:34:13;103568.47;;;5.89;70.99
17936;BME280;9093;52.062;4.508;2023-02-28T10:36:54;103566.78;;;5.94;70.80
17936;BME280;9093;52.062;4.508;2023-02-28T10:39:36;103571.19;;;5.93;70.85
17936;BME280;9093;52.062;4.508;2023-02-28T10:45:16;103570.25;;;5.90;71.01
17936;BME280;9093;52.062;4.508;2023-02-28T10:48:02;103562.31;;;5.90;71.32
17936;BME280;9093;52.062;4.508;2023-02-28T10:53:37;103561.44;;;5.88;71.39
17936;BME280;9093;52.062;4.508;2023-02-28T10:56:20;103563.19;;;5.89;71.09
17936;BME280;9093;52.062;4.508;2023-02-28T11:01:47;103556.09;;;5.89;71.09
17936;BME280;9093;52.062;4.508;2023-02-28T11:04:36;103549.16;;;6.02;71.18
17936;BME280;9093;52.062;4.508;2023-02-28T11:07:20;103547.50;;;6.16;71.19
17936;BME280;9093;52.062;4.508;2023-02-28T11:10:03;103544.91;;;6.27;70.87
17936;BME280;9093;52.062;4.508;2023-02-28T11:12:44;103545.81;;;6.27;70.99
17936;BME280;9093;52.062;4.508;2023-02-28T11:15:27;103547.56;;;6.25;70.96
17936;BME280;9093;52.062;4.508;2023-02-28T11:18:41;103542.19;;;6.16;71.24
17936;BME280;9093;52.062;4.508;2023-02-28T11:21:26;103536.00;;;6.13;71.19
17936;BME280;9093;52.062;4.508;2023-02-28T11:24:27;103522.63;;;5.99;70.93
17936;BME280;9093;52.062;4.508;2023-02-28T11:31:00;103523.41;;;5.87;70.50
17936;BME280;9093;52.062;4.508;2023-02-28T11:36:30;103540.09;;;5.82;70.20
17936;BME280;9093;52.062;4.508;2023-02-28T11:39:12;103531.22;;;5.77;70.43
17936;BME280;9093;52.062;4.508;2023-02-28T11:42:15;103522.34;;;5.72;70.15
17936;BME280;9093;52.062;4.508;2023-02-28T11:45:35;103521.50;;;5.74;70.12
17936;BME280;9093;52.062;4.508;2023-02-28T11:48:22;103522.44;;;5.84;69.83
17936;BME280;9093;52.062;4.508;2023-02-28T11:51:28;103515.44;;;5.89;69.85
17936;BME280;9093;52.062;4.508;2023-02-28T11:57:28;103515.47;;;5.92;69.88
17936;BME280;9093;52.062;4.508;2023-02-28T12:26:39;103493.16;;;7.24;69.10
17936;BME280;9093;52.062;4.508;2023-02-28T12:29:28;103479.00;;;7.30;68.82
17936;BME280;9093;52.062;4.508;2023-02-28T12:32:22;103482.50;;;7.27;68.87
17936;BME280;9093;52.062;4.508;2023-02-28T12:35:11;103486.94;;;7.19;68.68
17936;BME280;9093;52.062;4.508;2023-02-28T12:38:14;103477.16;;;7.06;68.65
17936;BME280;9093;52.062;4.508;2023-02-28T12:41:14;103476.25;;;7.00;68.42
17936;BME280;9093;52.062;4.508;2023-02-28T12:44:07;103478.91;;;6.89;68.67
17936;BME280;9093;52.062;4.508;2023-02-28T12:46:55;103475.31;;;6.84;68.19
17936;BME280;9093;52.062;4.508;2023-02-28T12:49:55;103477.06;;;6.76;68.01
17936;BME280;9093;52.062;4.508;2023-02-28T12:56:07;103482.34;;;6.64;67.98
17936;BME280;9093;52.062;4.508;2023-02-28T12:58:54;103477.00;;;6.61;67.71
17936;BME280;9093;52.062;4.508;2023-02-28T13:10:05;103452.19;;;6.53;66.77
17936;BME280;9093;52.062;4.508;2023-02-28T13:12:52;103453.94;;;6.54;66.64
17936;BME280;9093;52.062;4.508;2023-02-28T13:15:34;103448.66;;;6.54;66.66
17936;BME280;9093;52.062;4.508;2023-02-28T13:18:33;103447.75;;;6.53;66.20
17936;BME280;9093;52.062;4.508;2023-02-28T13:24:04;103439.81;;;6.58;66.11
17936;BME280;9093;52.062;4.508;2023-02-28T13:29:35;103438.94;;;6.60;65.65
17936;BME280;9093;52.062;4.508;2023-02-28T13:32:28;103441.59;;;6.59;65.54
17936;BME280;9093;52.062;4.508;2023-02-28T13:37:50;103423.03;;;6.62;65.41
17936;BME280;9093;52.062;4.508;2023-02-28T13:40:33;103416.84;;;6.66;65.20
17936;BME280;9093;52.062;4.508;2023-02-28T13:43:18;103432.78;;;6.72;65.33
17936;BME280;9093;52.062;4.508;2023-02-28T13:46:10;103427.50;;;6.75;64.84
17936;BME280;9093;52.062;4.508;2023-02-28T13:48:51;103413.34;;;6.76;65.13
17936;BME280;9093;52.062;4.508;2023-02-28T13:51:44;103422.22;;;6.81;64.78
17936;BME280;9093;52.062;4.508;2023-02-28T14:00:40;103416.91;;;6.93;64.42
17936;BME280;9093;52.062;4.508;2023-02-28T14:04:33;103415.16;;;7.04;64.20
17936;BME280;9093;52.062;4.508;2023-02-28T14:06:37;103414.28;;;7.08;64.19
17936;BME280;9093;52.062;4.508;2023-02-28T14:09:26;103415.16;;;7.15;63.83
17936;BME280;9093;52.062;4.508;2023-02-28T14:15:46;103394.81;;;7.18;63.58
17936;BME280;9093;52.062;4.508;2023-02-28T14:18:35;103395.72;;;7.23;63.58
17936;BME280;9093;52.062;4.508;2023-02-28T14:21:26;103395.72;;;7.30;63.61
17936;BME280;9093;52.062;4.508;2023-02-28T14:36:26;103379.75;;;7.63;62.43
17936;BME280;9093;52.062;4.508;2023-02-28T14:39:14;103389.50;;;7.68;62.30
17936;BME280;9093;52.062;4.508;2023-02-28T14:41:55;103383.28;;;7.74;62.23
17936;BME280;9093;52.062;4.508;2023-02-28T14:44:36;103385.03;;;7.81;61.99
17936;BME280;9093;52.062;4.508;2023-02-28T14:47:16;103386.81;;;7.88;62.10
17936;BME280;9093;52.062;4.508;2023-02-28T14:50:02;103390.34;;;7.96;61.73
17936;BME280;9093;52.062;4.508;2023-02-28T14:52:43;103385.00;;;7.99;61.77
17936;BME280;9093;52.062;4.508;2023-02-28T14:55:28;103388.53;;;8.03;61.64
17936;BME280;9093;52.062;4.508;2023-02-28T14:58:29;103380.53;;;8.04;61.15
17936;BME280;9093;52.062;4.508;2023-02-28T15:01:11;103390.28;;;8.12;61.08
17936;BME280;9093;52.062;4.508;2023-02-28T15:04:05;103379.63;;;8.15;61.08
17936;BME280;9093;52.062;4.508;2023-02-28T15:06:46;103378.72;;;8.17;60.92
17936;BME280;9093;52.062;4.508;2023-02-28T15:09:26;103388.47;;;8.17;60.75
17936;BME280;9093;52.062;4.508;2023-02-28T15:12:07;103385.81;;;8.18;60.84
17936;BME280;9093;52.062;4.508;2023-02-28T15:14:47;103384.94;;;8.21;60.86
17936;BME280;9093;52.062;4.508;2023-02-28T15:17:28;103384.03;;;8.25;60.38
17936;BME280;9093;52.062;4.508;2023-02-28T15:20:12;103393.75;;;8.29;60.60
17936;BME280;9093;52.062;4.508;2023-02-28T15:22:55;103389.31;;;8.29;60.29
17936;BME280;9093;52.062;4.508;2023-02-28T15:25:36;103388.50;;;8.21;61.04
17936;BME280;9093;52.062;4.508;2023-02-28T15:28:21;103383.13;;;8.26;60.31
17936;BME280;9093;52.062;4.508;2023-02-28T15:31:29;103392.91;;;8.24;60.37
17936;BME280;9093;52.062;4.508;2023-02-28T15:34:26;103397.38;;;8.22;60.15
17936;BME280;9093;52.062;4.508;2023-02-28T15:40:17;103385.81;;;8.27;60.17
17936;BME280;9093;52.062;4.508;2023-02-28T15:42:59;103390.22;;;8.30;59.76
17936;BME280;9093;52.062;4.508;2023-02-28T15:45:47;103388.47;;;8.30;59.95
17936;BME280;9093;52.062;4.508;2023-02-28T15:51:19;103386.69;;;8.28;59.75
17936;BME280;9093;52.062;4.508;2023-02-28T15:54:08;103384.91;;;8.27;59.71
17936;BME280;9093;52.062;4.508;2023-02-28T15:56:52;103384.91;;;8.27;59.81
17936;BME280;9093;52.062;4.508;2023-02-28T15:59:35;103387.56;;;8.25;59.71
17936;BME280;9093;52.062;4.508;2023-02-28T16:02:21;103392.03;;;8.19;59.83
17936;BME280;9093;52.062;4.508;2023-02-28T16:07:48;103389.41;;;8.06;59.73
17936;BME280;9093;52.062;4.508;2023-02-28T16:10:29;103390.31;;;7.99;59.68
17936;BME280;9093;52.062;4.508;2023-02-28T16:13:11;103387.66;;;7.92;59.68
17936;BME280;9093;52.062;4.508;2023-02-28T16:15:55;103388.59;;;7.83;59.92
17936;BME280;9093;52.062;4.508;2023-02-28T16:18:35;103396.59;;;7.76;59.58
17936;BME280;9093;52.062;4.508;2023-02-28T16:21:16;103390.38;;;7.63;59.81
17936;BME280;9093;52.062;4.508;2023-02-28T16:23:56;103391.28;;;7.54;59.92
17936;BME280;9093;52.062;4.508;2023-02-28T16:26:38;103396.59;;;7.47;59.66
17936;BME280;9093;52.062;4.508;2023-02-28T16:29:31;103393.06;;;7.36;59.84
17936;BME280;9093;52.062;4.508;2023-02-28T16:32:14;103399.25;;;7.28;59.74
17936;BME280;9093;52.062;4.508;2023-02-28T16:34:55;103388.63;;;7.19;59.79
17936;BME280;9093;52.062;4.508;2023-02-28T16:37:35;103390.38;;;7.11;59.79
17936;BME280;9093;52.062;4.508;2023-02-28T16:40:18;103403.66;;;7.04;59.79
17936;BME280;9093;52.062;4.508;2023-02-28T16:43:00;103399.22;;;6.95;59.59
17936;BME280;9093;52.062;4.508;2023-02-28T16:45:44;103407.19;;;6.89;60.09
17936;BME280;9093;52.062;4.508;2023-02-28T16:48:24;103416.91;;;6.81;59.79